createdAt,value
2023-12-02T00:02:01.577Z,8.18
2023-12-02T00:04:28.249Z,7.65
2023-12-02T00:06:54.971Z,8.73
2023-12-02T00:09:21.635Z,7.15
2023-12-02T00:11:51.742Z,11.95
2023-12-02T00:14:18.746Z,9.43
2023-12-02T00:16:45.499Z,7.80
2023-12-02T00:19:12.370Z,8.35
2023-12-02T00:21:39.128Z,11.80
2023-12-02T00:24:06.060Z,6.55
2023-12-02T00:26:32.664Z,6.45
2023-12-02T00:29:00.527Z,9.80
2023-12-02T00:31:27.249Z,8.68
2023-12-02T00:33:53.826Z,8.68
2023-12-02T00:36:20.491Z,14.50
2023-12-02T00:38:47.175Z,8.65
2023-12-02T00:41:13.792Z,9.98
2023-12-02T00:43:40.484Z,8.13
2023-12-02T00:46:07.843Z,8.98
2023-12-02T00:48:34.590Z,7.57
2023-12-02T00:51:01.408Z,9.48
2023-12-02T00:53:27.962Z,9.73
2023-12-02T00:55:54.499Z,9.57
2023-12-02T00:58:27.640Z,9.27
2023-12-02T01:00:58.580Z,8.25
2023-12-02T01:03:25.387Z,10.68
2023-12-02T01:05:52.135Z,10.45
2023-12-02T01:08:18.780Z,9.27
2023-12-02T01:10:45.434Z,11.60
2023-12-02T01:13:12.056Z,9.98
2023-12-02T01:15:38.710Z,7.35
2023-12-02T01:18:05.601Z,11.20
2023-12-02T01:20:32.372Z,11.48
2023-12-02T01:23:00.097Z,8.02
2023-12-02T01:25:26.655Z,11.57
2023-12-02T01:27:53.208Z,9.85
2023-12-02T01:30:20.070Z,9.55
2023-12-02T01:32:46.695Z,9.63
2023-12-02T01:35:13.386Z,9.90
2023-12-02T01:37:39.924Z,9.57
2023-12-02T01:40:08.813Z,11.82
2023-12-02T01:42:35.645Z,13.73
2023-12-02T01:45:02.335Z,9.93
2023-12-02T01:47:28.984Z,8.80
2023-12-02T01:49:57.515Z,7.45
2023-12-02T01:52:24.260Z,6.30
2023-12-02T01:54:50.991Z,10.32
2023-12-02T01:57:17.748Z,12.40
2023-12-02T01:59:54.579Z,7.97
2023-12-02T02:02:21.682Z,10.63
2023-12-02T02:04:49.706Z,9.82
2023-12-02T02:07:18.520Z,11.43
2023-12-02T02:09:54.246Z,8.57
2023-12-02T02:12:21.041Z,10.25
2023-12-02T02:14:47.687Z,11.18
2023-12-02T02:17:14.291Z,8.18
2023-12-02T02:19:40.926Z,10.18
2023-12-02T02:22:07.557Z,11.73
2023-12-02T02:24:34.170Z,11.07
2023-12-02T02:27:01.042Z,7.93
2023-12-02T02:29:27.846Z,8.98
2023-12-02T02:31:54.400Z,8.80
2023-12-02T02:34:21.029Z,9.90
2023-12-02T02:36:47.963Z,9.13
2023-12-02T02:39:14.617Z,8.98
2023-12-02T02:41:41.518Z,7.10
2023-12-02T02:44:08.138Z,7.80
2023-12-02T02:46:34.778Z,13.85
2023-12-02T02:49:01.555Z,11.57
2023-12-02T02:51:28.377Z,11.57
2023-12-02T02:53:55.071Z,10.85
2023-12-02T02:56:22.060Z,12.57
2023-12-02T02:58:48.753Z,7.45
2023-12-02T03:01:15.365Z,10.45
2023-12-02T03:03:42.137Z,6.55
2023-12-02T03:06:09.224Z,11.57
2023-12-02T03:08:36.668Z,10.25
2023-12-02T03:11:03.655Z,9.15
2023-12-02T03:13:30.242Z,7.97
2023-12-02T03:15:56.796Z,8.57
2023-12-02T03:18:23.774Z,8.20
2023-12-02T03:20:50.646Z,7.90
2023-12-02T03:23:17.357Z,9.27
2023-12-02T03:25:44.034Z,9.75
2023-12-02T03:28:10.677Z,8.02
2023-12-02T03:30:37.317Z,10.43
2023-12-02T03:33:04.111Z,15.68
2023-12-02T03:35:30.802Z,8.10
2023-12-02T03:37:57.482Z,9.70
2023-12-02T03:40:24.256Z,7.07
2023-12-02T03:42:50.849Z,11.30
2023-12-02T03:45:17.540Z,11.30
2023-12-02T03:47:44.232Z,8.55
2023-12-02T03:50:11.624Z,9.40
2023-12-02T03:52:38.218Z,9.75
2023-12-02T03:55:05.211Z,13.00
2023-12-02T03:57:31.801Z,6.68
2023-12-02T03:59:59.344Z,9.63
2023-12-02T04:02:25.979Z,9.40
2023-12-02T04:04:52.605Z,7.50
2023-12-02T04:07:20.172Z,10.65
2023-12-02T04:09:47.237Z,7.10
2023-12-02T04:12:14.765Z,8.13
2023-12-02T04:14:41.569Z,8.77
2023-12-02T04:17:09.259Z,10.38
2023-12-02T04:19:36.047Z,7.25
2023-12-02T04:22:02.784Z,9.60
2023-12-02T04:24:29.503Z,9.90
2023-12-02T04:26:56.772Z,8.65
2023-12-02T04:29:23.370Z,8.68
2023-12-02T04:31:49.905Z,9.38
2023-12-02T04:34:16.690Z,9.23
2023-12-02T04:36:44.304Z,12.15
2023-12-02T04:39:12.813Z,8.20
2023-12-02T04:41:39.715Z,8.43
2023-12-02T04:44:07.223Z,8.00
2023-12-02T04:46:33.887Z,7.40
2023-12-02T04:49:00.683Z,8.02
2023-12-02T04:51:27.364Z,7.95
2023-12-02T04:53:53.959Z,8.55
2023-12-02T04:56:20.522Z,7.00
2023-12-02T04:58:47.057Z,7.97
2023-12-02T05:01:13.660Z,10.23
2023-12-02T05:03:42.138Z,8.35
2023-12-02T05:06:14.450Z,9.00
2023-12-02T05:08:41.644Z,6.80
2023-12-02T05:11:08.886Z,8.15
2023-12-02T05:13:35.446Z,8.43
2023-12-02T05:16:02.119Z,5.25
2023-12-02T05:18:28.933Z,6.35
2023-12-02T05:20:55.599Z,7.13
2023-12-02T05:23:22.238Z,4.93
2023-12-02T05:25:48.842Z,9.30
2023-12-02T05:28:15.812Z,6.28
2023-12-02T05:30:42.458Z,6.18
2023-12-02T05:33:09.133Z,8.55
2023-12-02T05:35:36.084Z,7.20
2023-12-02T05:38:02.725Z,8.05
2023-12-02T05:40:29.308Z,7.78
2023-12-02T05:42:55.970Z,8.95
2023-12-02T05:45:22.559Z,7.50
2023-12-02T05:47:49.182Z,8.55
2023-12-02T05:50:15.817Z,10.65
2023-12-02T05:52:42.395Z,11.82
2023-12-02T05:55:10.874Z,11.20
2023-12-02T05:57:37.851Z,12.15
2023-12-02T06:00:05.224Z,8.60
2023-12-02T06:02:31.903Z,7.38
2023-12-02T06:04:58.556Z,7.65
2023-12-02T06:07:25.179Z,8.98
2023-12-02T06:09:51.810Z,6.60
2023-12-02T06:12:18.402Z,6.95
2023-12-02T06:14:45.005Z,9.98
2023-12-02T06:17:11.603Z,9.77
2023-12-02T06:19:38.298Z,5.65
2023-12-02T06:22:04.880Z,7.15
2023-12-02T06:24:31.623Z,7.30
2023-12-02T06:26:58.752Z,7.97
2023-12-02T06:29:25.550Z,8.30
2023-12-02T06:31:52.752Z,8.30
2023-12-02T06:34:20.478Z,5.60
2023-12-02T06:36:47.161Z,7.88
2023-12-02T06:39:13.920Z,5.78
2023-12-02T06:41:42.441Z,5.63
2023-12-02T06:44:10.364Z,8.20
2023-12-02T06:46:37.153Z,9.30
2023-12-02T06:49:03.945Z,9.27
2023-12-02T06:51:30.988Z,7.20
2023-12-02T06:53:58.599Z,6.45
2023-12-02T06:56:27.030Z,7.55
2023-12-02T06:58:54.445Z,11.10
2023-12-02T07:01:25.278Z,7.18
2023-12-02T07:03:51.974Z,9.13
2023-12-02T07:06:18.682Z,6.22
2023-12-02T07:08:45.314Z,8.52
2023-12-02T07:11:11.845Z,8.40
2023-12-02T07:13:38.887Z,8.20
2023-12-02T07:16:05.878Z,6.53
2023-12-02T07:18:32.545Z,6.95
2023-12-02T07:20:59.270Z,7.85
2023-12-02T07:23:32.366Z,9.40
2023-12-02T07:25:59.796Z,8.80
2023-12-02T07:28:26.995Z,7.57
2023-12-02T07:30:53.868Z,7.80
2023-12-02T07:33:21.038Z,5.97
2023-12-02T07:35:47.630Z,7.43
2023-12-02T07:38:14.387Z,7.82
2023-12-02T07:40:41.051Z,8.68
2023-12-02T07:43:07.673Z,8.48
2023-12-02T07:45:34.249Z,6.18
2023-12-02T07:48:00.974Z,9.20
2023-12-02T07:50:27.563Z,7.30
2023-12-02T07:52:54.867Z,12.23
2023-12-02T07:55:21.468Z,6.53
2023-12-02T07:57:48.001Z,8.63
2023-12-02T08:00:15.161Z,9.52
2023-12-02T08:02:41.809Z,11.57
2023-12-02T08:07:38.253Z,8.77
2023-12-02T08:10:05.368Z,8.73
2023-12-02T08:12:32.056Z,14.40
2023-12-02T08:14:58.647Z,11.80
2023-12-02T08:17:25.387Z,10.88
2023-12-02T08:19:52.150Z,13.70
2023-12-02T08:22:22.987Z,14.05
2023-12-02T08:24:49.642Z,13.30
2023-12-02T08:27:16.249Z,11.45
2023-12-02T08:29:42.805Z,13.85
2023-12-02T08:32:09.353Z,12.23
2023-12-02T08:34:36.193Z,11.70
2023-12-02T08:37:03.015Z,16.17
2023-12-02T08:39:29.647Z,11.15
2023-12-02T08:41:56.324Z,10.52
2023-12-02T08:44:25.037Z,14.80
2023-12-02T08:46:53.890Z,15.48
2023-12-02T08:49:21.082Z,16.77
2023-12-02T08:51:47.927Z,17.25
2023-12-02T08:54:14.629Z,16.33
2023-12-02T08:56:41.248Z,14.32
2023-12-02T08:59:07.928Z,16.95
2023-12-02T09:01:34.794Z,19.10
2023-12-02T09:04:01.553Z,16.10
2023-12-02T09:06:28.158Z,16.42
2023-12-02T09:08:55.995Z,13.95
2023-12-02T09:11:22.934Z,11.40
2023-12-02T09:13:50.658Z,12.57
2023-12-02T09:16:26.502Z,14.43
2023-12-02T09:18:53.204Z,11.32
2023-12-02T09:21:22.489Z,11.38
2023-12-02T09:23:50.255Z,13.07
2023-12-02T09:26:41.831Z,11.68
2023-12-02T09:29:09.220Z,8.80
2023-12-02T09:31:36.028Z,10.18
2023-12-02T09:34:04.840Z,13.65
2023-12-02T09:36:40.659Z,7.30
2023-12-02T09:39:11.282Z,7.95
2023-12-02T09:41:52.830Z,6.07
2023-12-02T09:44:46.804Z,6.95
2023-12-02T09:47:20.306Z,7.75
2023-12-02T09:50:12.202Z,9.25
2023-12-02T09:52:54.261Z,8.98
2023-12-02T09:55:38.067Z,9.48
2023-12-02T09:58:38.472Z,7.60
2023-12-02T10:01:20.354Z,8.95
2023-12-02T10:04:26.568Z,8.00
2023-12-02T10:07:04.789Z,7.20
2023-12-02T10:09:31.294Z,8.95
2023-12-02T10:12:13.277Z,8.60
2023-12-02T10:14:42.627Z,7.85
2023-12-02T10:17:11.780Z,7.57
2023-12-02T10:20:02.047Z,6.20
2023-12-02T10:22:32.387Z,8.98
2023-12-02T10:25:07.276Z,6.93
2023-12-02T10:27:37.571Z,10.25
2023-12-02T10:30:10.466Z,6.50
2023-12-02T10:32:39.808Z,7.45
2023-12-02T10:35:18.114Z,7.45
2023-12-02T10:37:45.161Z,5.13
2023-12-02T10:40:15.210Z,3.65
2023-12-02T10:43:00.652Z,4.70
2023-12-02T10:45:30.614Z,5.38
2023-12-02T10:48:00.300Z,5.45
2023-12-02T10:50:28.219Z,4.82
2023-12-02T10:55:31.518Z,4.47
2023-12-02T10:57:59.427Z,3.65
2023-12-02T11:03:06.097Z,3.63
2023-12-02T11:06:06.529Z,2.95
2023-12-02T11:08:51.832Z,3.47
2023-12-02T11:11:36.687Z,3.47
2023-12-02T11:14:04.971Z,4.15
2023-12-02T11:17:19.569Z,4.50
2023-12-02T11:20:12.383Z,4.35
2023-12-02T11:23:16.576Z,3.28
2023-12-02T11:26:02.084Z,2.47
2023-12-02T11:28:58.522Z,3.50
2023-12-02T11:31:32.057Z,1.90
2023-12-02T11:34:16.789Z,0.20
2023-12-02T11:37:00.202Z,1.08
2023-12-02T11:39:46.479Z,1.63
2023-12-02T11:42:16.121Z,1.67
2023-12-02T11:45:02.607Z,2.38
2023-12-02T11:47:36.305Z,0.80
2023-12-02T11:50:34.253Z,0.03
2023-12-02T11:53:12.730Z,0.28
2023-12-02T11:55:54.722Z,0.05
2023-12-02T11:58:37.365Z,0.30
2023-12-02T12:01:22.749Z,0.10
2023-12-02T12:04:34.367Z,0.00
2023-12-02T12:07:24.625Z,0.73
2023-12-02T12:09:54.255Z,0.73
2023-12-02T12:12:23.795Z,1.75
2023-12-02T12:14:52.874Z,0.13
2023-12-02T12:17:19.526Z,0.00
2023-12-02T12:19:51.207Z,0.20
2023-12-02T12:22:17.821Z,1.27
2023-12-02T12:24:44.474Z,1.65
2023-12-02T12:27:11.986Z,0.00
2023-12-02T12:29:58.943Z,0.32
2023-12-02T12:32:26.394Z,0.08
2023-12-02T12:34:57.000Z,0.98
2023-12-02T12:37:24.651Z,0.45
2023-12-02T12:39:51.706Z,0.57
2023-12-02T12:42:19.128Z,0.52
2023-12-02T12:44:45.902Z,0.43
2023-12-02T12:47:13.819Z,0.17
2023-12-02T12:52:10.045Z,0.15
2023-12-02T12:55:09.032Z,0.00
2023-12-02T12:57:52.614Z,1.85
2023-12-02T13:00:19.987Z,0.10
2023-12-02T13:03:13.525Z,0.10
2023-12-02T13:05:41.881Z,0.50
2023-12-02T13:08:11.821Z,0.10
2023-12-02T13:10:39.124Z,1.27
2023-12-02T13:13:08.615Z,0.32
2023-12-02T13:15:39.871Z,0.30
2023-12-02T13:18:07.805Z,0.47
2023-12-02T13:20:35.496Z,0.57
2023-12-02T13:23:07.701Z,0.10
2023-12-02T13:25:39.069Z,0.43
2023-12-02T13:28:28.730Z,0.08
2023-12-02T13:30:56.746Z,0.00
2023-12-02T13:33:49.813Z,0.03
2023-12-02T13:36:25.698Z,0.55
2023-12-02T13:39:04.747Z,0.00
2023-12-02T13:41:40.660Z,0.10
2023-12-02T13:44:12.757Z,0.80
2023-12-02T13:47:04.200Z,0.40
2023-12-02T13:49:42.169Z,0.28
2023-12-02T13:52:20.742Z,0.30
2023-12-02T13:55:04.882Z,1.15
2023-12-02T13:57:56.345Z,0.03
2023-12-02T14:00:52.846Z,0.20
2023-12-02T14:03:28.489Z,0.20
2023-12-02T14:06:02.762Z,0.08
2023-12-02T14:08:34.633Z,0.20
2023-12-02T14:11:03.351Z,0.28
2023-12-02T14:13:38.030Z,0.20
2023-12-02T14:16:13.024Z,2.88
2023-12-02T14:19:04.243Z,0.63
2023-12-02T14:21:46.291Z,0.65
2023-12-02T14:24:22.484Z,0.65
2023-12-02T14:27:14.722Z,0.00
2023-12-02T14:30:01.448Z,0.05
2023-12-02T14:32:46.600Z,0.20
2023-12-02T14:35:44.069Z,0.43
2023-12-02T14:38:37.101Z,0.28
2023-12-02T14:41:45.921Z,0.10
2023-12-02T14:44:27.788Z,0.52
2023-12-02T14:47:02.583Z,0.38
2023-12-02T14:49:36.549Z,0.03
2023-12-02T14:54:33.928Z,1.27
2023-12-02T14:57:20.234Z,0.85
2023-12-02T15:00:10.000Z,0.63
2023-12-02T15:02:52.648Z,0.22
2023-12-02T15:05:21.555Z,0.70
2023-12-02T15:07:56.952Z,0.95
2023-12-02T15:10:33.602Z,1.00
2023-12-02T15:13:06.952Z,0.50
2023-12-02T15:15:45.193Z,0.17
2023-12-02T15:18:26.470Z,0.35
2023-12-02T15:21:14.614Z,0.17
2023-12-02T15:23:45.144Z,0.55
2023-12-02T15:26:12.838Z,0.73
2023-12-02T15:28:39.374Z,0.30
2023-12-02T15:31:15.075Z,0.28
2023-12-02T15:33:42.878Z,0.10
2023-12-02T15:36:14.577Z,0.30
2023-12-02T15:38:41.574Z,0.80
2023-12-02T15:41:08.231Z,0.95
2023-12-02T15:43:35.433Z,0.30
2023-12-02T15:46:02.226Z,0.68
2023-12-02T15:48:29.278Z,0.57
2023-12-02T15:50:55.986Z,0.73
2023-12-02T15:53:23.982Z,0.57
2023-12-02T15:58:18.623Z,0.10
2023-12-02T16:00:45.391Z,0.10
2023-12-02T16:03:12.116Z,0.32
2023-12-02T16:05:39.084Z,0.35
2023-12-02T16:08:08.306Z,0.77
2023-12-02T16:10:35.193Z,0.30
2023-12-02T16:13:02.537Z,0.32
2023-12-02T16:15:30.924Z,0.45
2023-12-02T16:18:01.397Z,0.20
2023-12-02T16:20:28.567Z,0.32
2023-12-02T16:22:55.344Z,0.65
2023-12-02T16:25:22.211Z,0.68
2023-12-02T16:27:49.329Z,0.57
2023-12-02T16:30:22.652Z,0.32
2023-12-02T16:32:50.586Z,0.45
2023-12-02T16:37:46.597Z,0.98
2023-12-02T16:40:13.427Z,2.53
2023-12-02T16:42:40.329Z,0.40
2023-12-02T16:45:22.171Z,0.40
2023-12-02T16:47:52.204Z,1.02
2023-12-02T16:50:22.802Z,0.90
2023-12-02T16:52:52.727Z,1.02
2023-12-02T16:55:19.943Z,1.70
2023-12-02T16:57:50.750Z,1.02
2023-12-02T17:00:19.847Z,0.75
2023-12-02T17:02:46.825Z,2.05
2023-12-02T17:05:31.892Z,0.82
2023-12-02T17:08:24.960Z,1.48
2023-12-02T17:11:00.102Z,0.57
2023-12-02T17:13:36.271Z,1.38
2023-12-02T17:16:33.300Z,1.33
2023-12-02T17:19:00.882Z,1.40
2023-12-02T17:24:12.192Z,1.52
2023-12-02T17:26:40.485Z,0.38
2023-12-02T17:29:14.073Z,1.70
2023-12-02T17:31:41.100Z,0.88
2023-12-02T17:34:07.909Z,1.75
2023-12-02T17:36:35.850Z,4.47
2023-12-02T17:41:29.273Z,1.88
2023-12-02T17:43:56.805Z,3.03
2023-12-02T17:46:25.299Z,1.88
2023-12-02T17:48:52.381Z,2.55
2023-12-02T17:51:20.178Z,3.05
2023-12-02T17:53:47.021Z,1.27
2023-12-02T17:56:13.643Z,1.63
2023-12-02T17:58:40.267Z,1.23
2023-12-02T18:01:07.388Z,1.85
2023-12-02T18:03:34.007Z,1.33
2023-12-02T18:06:00.667Z,0.88
2023-12-02T18:08:27.354Z,1.15
2023-12-02T18:10:54.488Z,0.75
2023-12-02T18:13:21.110Z,1.98
2023-12-02T18:15:48.182Z,1.02
2023-12-02T18:18:15.410Z,1.38
2023-12-02T18:20:44.921Z,0.70
2023-12-02T18:23:11.900Z,0.28
2023-12-02T18:25:38.512Z,0.50
2023-12-02T18:28:05.386Z,1.42
2023-12-02T18:30:32.314Z,1.08
2023-12-02T18:32:59.081Z,1.40
2023-12-02T18:35:25.691Z,1.17
2023-12-02T18:37:52.787Z,2.03
2023-12-02T18:40:24.140Z,1.58
2023-12-02T18:42:50.702Z,0.88
2023-12-02T18:45:17.399Z,2.20
2023-12-02T18:47:44.238Z,2.20
2023-12-02T18:50:11.220Z,6.97
2023-12-02T18:52:38.471Z,1.10
2023-12-02T18:55:05.827Z,0.55
2023-12-02T18:57:32.486Z,0.30
2023-12-02T19:00:06.260Z,0.57
2023-12-02T19:02:33.968Z,0.55
2023-12-02T19:05:00.686Z,0.57
2023-12-02T19:07:27.392Z,1.02
2023-12-02T19:09:54.044Z,3.33
2023-12-02T19:12:23.660Z,1.55
2023-12-02T19:14:50.303Z,0.77
2023-12-02T19:17:16.837Z,0.98
2023-12-02T19:19:43.451Z,0.20
2023-12-02T19:22:10.102Z,1.00
2023-12-02T19:24:36.747Z,2.80
2023-12-02T19:27:03.548Z,1.17
2023-12-02T19:29:30.206Z,2.28
2023-12-02T19:31:56.786Z,1.88
2023-12-02T19:34:23.530Z,3.53
2023-12-02T19:36:50.247Z,1.92
2023-12-02T19:39:16.910Z,1.45
2023-12-02T19:41:46.045Z,1.48
2023-12-02T19:44:13.735Z,2.70
2023-12-02T19:46:41.520Z,0.57
2023-12-02T19:49:08.283Z,5.13
2023-12-02T19:51:35.017Z,2.17
2023-12-02T19:54:02.074Z,3.22
2023-12-02T19:56:30.028Z,2.00
2023-12-02T19:58:56.718Z,3.47
2023-12-02T20:01:23.349Z,2.65
2023-12-02T20:03:50.334Z,3.28
2023-12-02T20:06:16.979Z,3.28
2023-12-02T20:08:43.645Z,2.88
2023-12-02T20:11:10.225Z,2.60
2023-12-02T20:13:36.808Z,2.53
2023-12-02T20:16:04.340Z,4.00
2023-12-02T20:18:31.404Z,4.30
2023-12-02T20:20:58.191Z,2.83
2023-12-02T20:23:24.981Z,4.15
2023-12-02T20:25:51.661Z,3.15
2023-12-02T20:28:18.411Z,1.90
2023-12-02T20:30:45.371Z,3.70
2023-12-02T20:33:12.547Z,5.55
2023-12-02T20:35:39.315Z,3.33
2023-12-02T20:38:05.936Z,1.90
2023-12-02T20:40:32.700Z,2.78
2023-12-02T20:42:59.882Z,3.70
2023-12-02T20:45:26.666Z,2.35
2023-12-02T20:47:53.522Z,2.40
2023-12-02T20:50:20.932Z,3.80
2023-12-02T20:52:49.320Z,4.05
2023-12-02T20:55:16.057Z,4.70
2023-12-02T20:57:42.724Z,4.75
2023-12-02T21:00:12.760Z,6.22
2023-12-02T21:02:39.417Z,4.82
2023-12-02T21:05:06.231Z,7.25
2023-12-02T21:07:32.823Z,3.95
2023-12-02T21:10:00.372Z,5.38
2023-12-02T21:12:30.469Z,5.38
2023-12-02T21:14:58.062Z,4.78
2023-12-02T21:17:24.670Z,6.13
2023-12-02T21:19:51.485Z,3.80
2023-12-02T21:22:18.152Z,5.78
2023-12-02T21:24:48.087Z,3.63
2023-12-02T21:27:15.819Z,3.90
2023-12-02T21:29:44.200Z,3.10
2023-12-02T21:32:22.548Z,6.13
2023-12-02T21:34:55.381Z,5.45
2023-12-02T21:37:25.298Z,4.80
2023-12-02T21:39:57.582Z,3.15
2023-12-02T21:42:24.537Z,3.90
2023-12-02T21:44:51.923Z,2.40
2023-12-02T21:47:18.583Z,2.85
2023-12-02T21:49:46.619Z,4.40
2023-12-02T21:52:17.306Z,2.63
2023-12-02T21:54:44.989Z,2.65
2023-12-02T21:57:15.133Z,3.58
2023-12-02T21:59:42.174Z,1.73
2023-12-02T22:02:19.873Z,4.28
2023-12-02T22:04:46.913Z,4.30
2023-12-02T22:07:23.662Z,1.35
2023-12-02T22:09:50.708Z,2.90
2023-12-02T22:12:20.324Z,4.00
2023-12-02T22:14:47.136Z,3.03
2023-12-02T22:17:22.064Z,5.63
2023-12-02T22:19:50.382Z,2.63
2023-12-02T22:22:44.940Z,3.78
2023-12-02T22:25:19.647Z,3.30
2023-12-02T22:27:46.686Z,3.05
2023-12-02T22:30:21.012Z,6.60
2023-12-02T22:35:33.740Z,2.40
2023-12-02T22:38:00.392Z,1.40
2023-12-02T22:40:34.573Z,3.63
2023-12-02T22:43:06.370Z,3.70
2023-12-02T22:45:36.645Z,2.90
2023-12-02T22:48:13.689Z,3.10
2023-12-02T22:50:40.430Z,1.92
2023-12-02T22:53:32.189Z,2.75
2023-12-02T22:56:00.168Z,1.48
2023-12-02T22:58:27.327Z,2.30
2023-12-02T23:00:57.279Z,0.73
2023-12-02T23:03:25.872Z,1.30
2023-12-02T23:05:59.050Z,0.10
2023-12-02T23:08:28.033Z,1.85
2023-12-02T23:10:55.054Z,0.80
2023-12-02T23:13:34.012Z,2.03
2023-12-02T23:16:26.146Z,1.08
2023-12-02T23:18:52.763Z,0.30
2023-12-02T23:21:19.544Z,0.45
2023-12-02T23:23:46.440Z,0.77
2023-12-02T23:26:15.170Z,0.68
2023-12-02T23:28:41.858Z,0.77
2023-12-02T23:31:08.405Z,1.83
2023-12-02T23:33:35.533Z,1.02
2023-12-02T23:36:04.408Z,1.50
2023-12-02T23:38:32.292Z,1.50
2023-12-02T23:40:58.986Z,1.15
2023-12-02T23:43:36.834Z,2.75
2023-12-02T23:46:04.251Z,1.63
2023-12-02T23:48:30.917Z,0.60
2023-12-02T23:50:57.652Z,0.35
2023-12-02T23:53:24.753Z,0.57
2023-12-02T23:55:52.228Z,1.95
2023-12-02T23:58:18.932Z,1.40
